createdAt,value
2019-06-08T00:07:43.784Z,0.20
2019-06-08T00:17:44.526Z,0.30
2019-06-08T00:27:45.387Z,0.30
2019-06-08T00:37:46.147Z,0.30
2019-06-08T00:47:48.341Z,0.20
2019-06-08T00:57:49.580Z,0.30
2019-06-08T01:07:50.392Z,0.40
2019-06-08T01:18:02.308Z,0.30
2019-06-08T01:27:54.454Z,0.40
2019-06-08T01:37:56.124Z,0.30
2019-06-08T01:47:58.381Z,0.20
2019-06-08T01:57:59.246Z,0.30
2019-06-08T02:08:00.286Z,0.30
2019-06-08T02:18:01.388Z,0.20
2019-06-08T02:28:02.270Z,0.20
2019-06-08T02:38:03.370Z,0.40
2019-06-08T02:48:04.215Z,0.30
2019-06-08T02:58:05.328Z,0.53
2019-06-08T03:08:06.657Z,0.20
2019-06-08T03:18:07.863Z,0.40
2019-06-08T03:28:08.899Z,0.40
2019-06-08T03:38:09.737Z,0.87
2019-06-08T03:48:10.784Z,0.40
2019-06-08T03:58:11.512Z,0.97
2019-06-08T04:08:12.303Z,0.70
2019-06-08T04:18:13.374Z,0.47
2019-06-08T04:28:14.382Z,0.50
2019-06-08T04:38:15.439Z,0.50
2019-06-08T04:48:16.219Z,0.60
2019-06-08T04:58:17.140Z,0.50
2019-06-08T05:08:18.230Z,0.63
2019-06-08T05:18:19.470Z,0.57
2019-06-08T05:28:20.392Z,0.80
2019-06-08T05:38:21.104Z,0.50
2019-06-08T05:48:22.104Z,0.50
2019-06-08T05:58:23.125Z,0.93
2019-06-08T06:08:23.789Z,0.60
2019-06-08T06:18:24.677Z,0.83
2019-06-08T06:28:25.516Z,0.80
2019-06-08T06:38:26.468Z,1.07
2019-06-08T06:48:27.251Z,0.57
2019-06-08T06:58:28.419Z,0.80
2019-06-08T07:08:29.231Z,0.67
2019-06-08T07:18:29.990Z,0.60
2019-06-08T07:28:31.143Z,0.87
2019-06-08T07:38:32.268Z,0.50
2019-06-08T07:48:33.274Z,0.80
2019-06-08T07:58:34.256Z,0.70
2019-06-08T08:08:34.934Z,0.80
2019-06-08T08:18:35.649Z,0.53
2019-06-08T08:28:37.815Z,0.87
2019-06-08T08:38:41.066Z,0.80
2019-06-08T08:48:41.671Z,0.80
2019-06-08T08:58:42.610Z,0.90
2019-06-08T09:08:43.599Z,1.13
2019-06-08T09:29:29.503Z,0.77
2019-06-08T09:39:30.777Z,0.83
2019-06-08T09:49:31.761Z,1.00
2019-06-08T09:59:32.824Z,0.70
2019-06-08T10:09:33.774Z,1.07
2019-06-08T10:19:34.526Z,0.77
2019-06-08T10:29:35.234Z,0.57
2019-06-08T10:39:37.910Z,0.70
2019-06-08T10:49:38.729Z,0.67
2019-06-08T10:59:40.281Z,1.00
2019-06-08T11:09:41.125Z,0.83
2019-06-08T11:19:42.118Z,0.60
2019-06-08T11:29:43.039Z,0.70
2019-06-08T11:39:44.116Z,0.50
2019-06-08T11:49:44.807Z,0.60
2019-06-08T11:59:48.349Z,0.40
2019-06-08T12:09:50.391Z,0.60
2019-06-08T12:19:51.160Z,0.50
2019-06-08T12:29:52.168Z,0.80
2019-06-08T12:39:52.940Z,0.50
2019-06-08T12:49:53.737Z,0.60
2019-06-08T12:59:54.385Z,1.03
2019-06-08T13:09:55.288Z,0.50
2019-06-08T13:19:58.205Z,0.50
2019-06-08T13:29:59.231Z,0.80
2019-06-08T13:40:00.006Z,0.80
2019-06-08T13:50:00.803Z,0.93
2019-06-08T14:00:08.066Z,0.50
2019-06-08T14:10:09.152Z,0.90
2019-06-08T14:20:13.354Z,0.57
2019-06-08T14:30:18.245Z,0.60
2019-06-08T14:40:21.331Z,0.50
2019-06-08T14:50:22.943Z,0.50
2019-06-08T15:00:24.470Z,0.70
2019-06-08T15:10:28.466Z,0.50
2019-06-08T15:20:28.923Z,0.40
2019-06-08T15:30:32.865Z,0.47
2019-06-08T15:40:33.667Z,0.47
2019-06-08T15:50:35.069Z,0.60
2019-06-08T16:00:42.813Z,0.57
2019-06-08T16:10:43.736Z,0.40
2019-06-08T16:20:44.479Z,0.50
2019-06-08T16:30:45.445Z,0.30
2019-06-08T16:40:46.665Z,0.30
2019-06-08T16:50:47.473Z,0.40
2019-06-08T17:00:48.505Z,0.40
2019-06-08T17:10:49.374Z,0.30
2019-06-08T17:20:50.469Z,0.30
2019-06-08T17:30:51.443Z,0.40
2019-06-08T17:40:52.458Z,0.40
2019-06-08T17:50:53.434Z,0.30
2019-06-08T18:00:54.604Z,0.53
2019-06-08T18:10:57.428Z,0.40
2019-06-08T18:20:58.354Z,0.40
2019-06-08T18:30:59.115Z,0.40
2019-06-08T18:41:00.067Z,0.50
2019-06-08T18:51:01.253Z,0.53
2019-06-08T19:01:02.385Z,0.60
2019-06-08T19:11:03.393Z,0.53
2019-06-08T19:21:04.401Z,0.50
2019-06-08T19:31:07.902Z,0.50
2019-06-08T19:41:08.323Z,0.60
2019-06-08T19:51:09.320Z,0.80
2019-06-08T20:01:10.112Z,1.70
2019-06-08T20:11:11.135Z,1.23
2019-06-08T20:21:11.863Z,1.10
2019-06-08T20:31:12.883Z,0.87
2019-06-08T20:41:13.941Z,1.37
2019-06-08T20:51:17.110Z,1.30
2019-06-08T21:01:18.092Z,1.17
2019-06-08T21:11:19.166Z,1.87
2019-06-08T21:21:19.968Z,1.10
2019-06-08T21:31:20.707Z,1.30
2019-06-08T21:41:23.782Z,1.83
2019-06-08T21:51:26.224Z,1.80
2019-06-08T22:01:29.300Z,1.30
2019-06-08T22:11:30.031Z,1.20
2019-06-08T22:21:30.943Z,1.17
2019-06-08T22:31:31.933Z,1.10
2019-06-08T22:41:32.797Z,1.40
2019-06-08T22:51:34.532Z,1.13
2019-06-08T23:01:35.515Z,1.10
2019-06-08T23:11:37.665Z,1.50
2019-06-08T23:21:40.538Z,0.87
2019-06-08T23:31:41.432Z,0.87
2019-06-08T23:41:42.133Z,0.87
2019-06-08T23:51:43.038Z,1.23
